sensor_id;sensor_type;location;lat;lon;timestamp;P1;durP1;ratioP1;P2;durP2;ratioP2
7843;SDS011;3967;48.702;9.326;2023-03-19T00:00:37;7.03;;;4.97;;
7843;SDS011;3967;48.702;9.326;2023-03-19T00:03:03;7.50;;;5.00;;
7843;SDS011;3967;48.702;9.326;2023-03-19T00:05:30;5.77;;;4.20;;
7843;SDS011;3967;48.702;9.326;2023-03-19T00:07:57;8.27;;;5.60;;
7843;SDS011;3967;48.702;9.326;2023-03-19T00:10:24;8.23;;;4.63;;
7843;SDS011;3967;48.702;9.326;2023-03-19T00:12:51;10.87;;;5.10;;
7843;SDS011;3967;48.702;9.326;2023-03-19T00:15:18;9.37;;;5.57;;
7843;SDS011;3967;48.702;9.326;2023-03-19T00:17:44;10.50;;;5.67;;
7843;SDS011;3967;48.702;9.326;2023-03-19T00:20:11;6.87;;;4.73;;
7843;SDS011;3967;48.702;9.326;2023-03-19T00:22:40;7.10;;;4.83;;
7843;SDS011;3967;48.702;9.326;2023-03-19T00:25:07;6.90;;;4.90;;
7843;SDS011;3967;48.702;9.326;2023-03-19T00:27:35;7.67;;;5.07;;
7843;SDS011;3967;48.702;9.326;2023-03-19T00:30:06;8.10;;;5.20;;
7843;SDS011;3967;48.702;9.326;2023-03-19T00:32:33;7.43;;;5.20;;
7843;SDS011;3967;48.702;9.326;2023-03-19T00:35:02;5.20;;;4.57;;
7843;SDS011;3967;48.702;9.326;2023-03-19T00:37:31;4.47;;;4.03;;
7843;SDS011;3967;48.702;9.326;2023-03-19T00:39:58;7.77;;;5.30;;
7843;SDS011;3967;48.702;9.326;2023-03-19T00:42:25;6.87;;;5.40;;
7843;SDS011;3967;48.702;9.326;2023-03-19T00:44:52;8.07;;;4.83;;
7843;SDS011;3967;48.702;9.326;2023-03-19T00:47:19;6.50;;;5.03;;
7843;SDS011;3967;48.702;9.326;2023-03-19T00:49:46;10.33;;;5.97;;
7843;SDS011;3967;48.702;9.326;2023-03-19T00:52:13;9.67;;;5.47;;
7843;SDS011;3967;48.702;9.326;2023-03-19T00:54:40;11.13;;;5.97;;
7843;SDS011;3967;48.702;9.326;2023-03-19T00:57:07;8.60;;;6.63;;
7843;SDS011;3967;48.702;9.326;2023-03-19T00:59:34;9.70;;;5.80;;
7843;SDS011;3967;48.702;9.326;2023-03-19T01:02:01;9.03;;;5.47;;
7843;SDS011;3967;48.702;9.326;2023-03-19T01:04:28;12.30;;;6.80;;
7843;SDS011;3967;48.702;9.326;2023-03-19T01:06:55;8.73;;;6.00;;
7843;SDS011;3967;48.702;9.326;2023-03-19T01:09:23;10.93;;;5.30;;
7843;SDS011;3967;48.702;9.326;2023-03-19T01:11:50;7.70;;;5.53;;
7843;SDS011;3967;48.702;9.326;2023-03-19T01:14:16;9.13;;;6.27;;
7843;SDS011;3967;48.702;9.326;2023-03-19T01:16:43;7.53;;;5.63;;
7843;SDS011;3967;48.702;9.326;2023-03-19T01:19:10;7.50;;;5.50;;
7843;SDS011;3967;48.702;9.326;2023-03-19T01:21:38;6.90;;;5.37;;
7843;SDS011;3967;48.702;9.326;2023-03-19T01:24:05;8.83;;;5.87;;
7843;SDS011;3967;48.702;9.326;2023-03-19T01:26:32;8.83;;;5.63;;
7843;SDS011;3967;48.702;9.326;2023-03-19T01:28:58;6.93;;;5.70;;
7843;SDS011;3967;48.702;9.326;2023-03-19T01:31:25;9.10;;;5.50;;
7843;SDS011;3967;48.702;9.326;2023-03-19T01:33:52;7.30;;;5.30;;
7843;SDS011;3967;48.702;9.326;2023-03-19T01:36:18;11.63;;;5.43;;
7843;SDS011;3967;48.702;9.326;2023-03-19T01:38:46;8.40;;;6.10;;
7843;SDS011;3967;48.702;9.326;2023-03-19T01:41:12;6.43;;;5.10;;
7843;SDS011;3967;48.702;9.326;2023-03-19T01:43:39;6.67;;;4.97;;
7843;SDS011;3967;48.702;9.326;2023-03-19T01:46:07;9.40;;;5.70;;
7843;SDS011;3967;48.702;9.326;2023-03-19T01:48:59;7.60;;;5.57;;
7843;SDS011;3967;48.702;9.326;2023-03-19T01:51:29;7.67;;;6.07;;
7843;SDS011;3967;48.702;9.326;2023-03-19T01:54:01;7.37;;;3.93;;
7843;SDS011;3967;48.702;9.326;2023-03-19T01:56:31;5.63;;;4.13;;
7843;SDS011;3967;48.702;9.326;2023-03-19T01:59:02;4.80;;;4.03;;
7843;SDS011;3967;48.702;9.326;2023-03-19T02:01:34;10.60;;;4.17;;
7843;SDS011;3967;48.702;9.326;2023-03-19T02:04:07;5.20;;;3.67;;
7843;SDS011;3967;48.702;9.326;2023-03-19T02:06:35;4.60;;;3.90;;
7843;SDS011;3967;48.702;9.326;2023-03-19T02:09:02;4.53;;;4.00;;
7843;SDS011;3967;48.702;9.326;2023-03-19T02:11:29;4.67;;;3.30;;
7843;SDS011;3967;48.702;9.326;2023-03-19T02:13:56;8.37;;;4.27;;
7843;SDS011;3967;48.702;9.326;2023-03-19T02:16:23;5.07;;;3.80;;
7843;SDS011;3967;48.702;9.326;2023-03-19T02:18:50;6.40;;;3.50;;
7843;SDS011;3967;48.702;9.326;2023-03-19T02:21:18;4.57;;;3.17;;
7843;SDS011;3967;48.702;9.326;2023-03-19T02:23:48;5.90;;;3.37;;
7843;SDS011;3967;48.702;9.326;2023-03-19T02:26:29;6.33;;;3.30;;
7843;SDS011;3967;48.702;9.326;2023-03-19T02:28:56;5.27;;;3.47;;
7843;SDS011;3967;48.702;9.326;2023-03-19T02:31:23;5.20;;;3.60;;
7843;SDS011;3967;48.702;9.326;2023-03-19T02:36:22;11.23;;;4.60;;
7843;SDS011;3967;48.702;9.326;2023-03-19T02:38:50;4.40;;;3.70;;
7843;SDS011;3967;48.702;9.326;2023-03-19T02:41:18;5.63;;;3.90;;
7843;SDS011;3967;48.702;9.326;2023-03-19T02:43:46;6.10;;;4.27;;
7843;SDS011;3967;48.702;9.326;2023-03-19T02:46:13;4.67;;;4.10;;
7843;SDS011;3967;48.702;9.326;2023-03-19T02:48:39;6.67;;;4.23;;
7843;SDS011;3967;48.702;9.326;2023-03-19T02:51:06;6.53;;;4.50;;
7843;SDS011;3967;48.702;9.326;2023-03-19T02:53:33;6.43;;;3.70;;
7843;SDS011;3967;48.702;9.326;2023-03-19T02:56:00;4.93;;;3.47;;
7843;SDS011;3967;48.702;9.326;2023-03-19T02:58:27;4.40;;;4.00;;
7843;SDS011;3967;48.702;9.326;2023-03-19T03:00:54;5.83;;;4.07;;
7843;SDS011;3967;48.702;9.326;2023-03-19T03:03:21;6.60;;;4.60;;
7843;SDS011;3967;48.702;9.326;2023-03-19T03:05:47;7.40;;;4.67;;
7843;SDS011;3967;48.702;9.326;2023-03-19T03:08:14;7.73;;;5.10;;
7843;SDS011;3967;48.702;9.326;2023-03-19T03:10:41;9.33;;;4.93;;
7843;SDS011;3967;48.702;9.326;2023-03-19T03:13:07;8.63;;;5.37;;
7843;SDS011;3967;48.702;9.326;2023-03-19T03:15:34;6.77;;;5.20;;
7843;SDS011;3967;48.702;9.326;2023-03-19T03:18:01;8.23;;;4.97;;
7843;SDS011;3967;48.702;9.326;2023-03-19T03:20:28;10.23;;;4.93;;
7843;SDS011;3967;48.702;9.326;2023-03-19T03:22:55;9.30;;;4.83;;
7843;SDS011;3967;48.702;9.326;2023-03-19T03:25:21;7.37;;;5.30;;
7843;SDS011;3967;48.702;9.326;2023-03-19T03:27:48;6.60;;;4.83;;
7843;SDS011;3967;48.702;9.326;2023-03-19T03:30:16;5.43;;;4.57;;
7843;SDS011;3967;48.702;9.326;2023-03-19T03:32:42;5.27;;;4.40;;
7843;SDS011;3967;48.702;9.326;2023-03-19T03:35:09;8.77;;;4.77;;
7843;SDS011;3967;48.702;9.326;2023-03-19T03:37:36;6.03;;;3.97;;
7843;SDS011;3967;48.702;9.326;2023-03-19T03:40:03;5.20;;;4.50;;
7843;SDS011;3967;48.702;9.326;2023-03-19T03:42:34;5.57;;;4.53;;
7843;SDS011;3967;48.702;9.326;2023-03-19T03:45:02;4.67;;;4.23;;
7843;SDS011;3967;48.702;9.326;2023-03-19T03:47:29;7.13;;;4.87;;
7843;SDS011;3967;48.702;9.326;2023-03-19T03:49:56;7.37;;;5.13;;
7843;SDS011;3967;48.702;9.326;2023-03-19T03:52:23;8.90;;;5.60;;
7843;SDS011;3967;48.702;9.326;2023-03-19T03:54:50;5.97;;;4.93;;
7843;SDS011;3967;48.702;9.326;2023-03-19T03:57:17;9.33;;;5.83;;
7843;SDS011;3967;48.702;9.326;2023-03-19T03:59:43;9.83;;;5.43;;
7843;SDS011;3967;48.702;9.326;2023-03-19T04:02:10;7.20;;;5.70;;
7843;SDS011;3967;48.702;9.326;2023-03-19T04:04:37;5.47;;;4.57;;
7843;SDS011;3967;48.702;9.326;2023-03-19T04:07:03;8.33;;;4.43;;
7843;SDS011;3967;48.702;9.326;2023-03-19T04:09:31;5.07;;;4.57;;
7843;SDS011;3967;48.702;9.326;2023-03-19T04:11:58;6.43;;;4.83;;
7843;SDS011;3967;48.702;9.326;2023-03-19T04:14:25;5.57;;;5.07;;
7843;SDS011;3967;48.702;9.326;2023-03-19T04:16:52;7.07;;;4.87;;
7843;SDS011;3967;48.702;9.326;2023-03-19T04:19:19;8.27;;;4.90;;
7843;SDS011;3967;48.702;9.326;2023-03-19T04:21:46;5.50;;;4.60;;
7843;SDS011;3967;48.702;9.326;2023-03-19T04:24:12;8.10;;;5.10;;
7843;SDS011;3967;48.702;9.326;2023-03-19T04:26:39;5.97;;;4.93;;
7843;SDS011;3967;48.702;9.326;2023-03-19T04:29:06;6.67;;;5.23;;
7843;SDS011;3967;48.702;9.326;2023-03-19T04:31:33;6.07;;;4.80;;
7843;SDS011;3967;48.702;9.326;2023-03-19T04:34:00;5.63;;;4.70;;
7843;SDS011;3967;48.702;9.326;2023-03-19T04:36:27;5.57;;;4.63;;
7843;SDS011;3967;48.702;9.326;2023-03-19T04:38:54;9.50;;;5.10;;
7843;SDS011;3967;48.702;9.326;2023-03-19T04:41:21;5.97;;;4.37;;
7843;SDS011;3967;48.702;9.326;2023-03-19T04:43:48;7.20;;;4.90;;
7843;SDS011;3967;48.702;9.326;2023-03-19T04:46:14;7.33;;;4.77;;
7843;SDS011;3967;48.702;9.326;2023-03-19T04:48:42;5.80;;;4.63;;
7843;SDS011;3967;48.702;9.326;2023-03-19T04:51:08;8.67;;;4.50;;
7843;SDS011;3967;48.702;9.326;2023-03-19T04:53:36;5.03;;;4.30;;
7843;SDS011;3967;48.702;9.326;2023-03-19T04:56:03;4.17;;;3.77;;
7843;SDS011;3967;48.702;9.326;2023-03-19T04:58:32;7.13;;;4.40;;
7843;SDS011;3967;48.702;9.326;2023-03-19T05:00:59;6.63;;;4.57;;
7843;SDS011;3967;48.702;9.326;2023-03-19T05:03:26;5.23;;;4.20;;
7843;SDS011;3967;48.702;9.326;2023-03-19T05:05:53;4.83;;;4.10;;
7843;SDS011;3967;48.702;9.326;2023-03-19T05:08:22;4.87;;;3.70;;
7843;SDS011;3967;48.702;9.326;2023-03-19T05:10:49;5.73;;;3.73;;
7843;SDS011;3967;48.702;9.326;2023-03-19T05:13:16;3.53;;;3.23;;
7843;SDS011;3967;48.702;9.326;2023-03-19T05:15:45;5.97;;;4.00;;
7843;SDS011;3967;48.702;9.326;2023-03-19T05:18:12;4.30;;;3.90;;
7843;SDS011;3967;48.702;9.326;2023-03-19T05:20:39;3.93;;;3.53;;
7843;SDS011;3967;48.702;9.326;2023-03-19T05:23:07;4.77;;;4.27;;
7843;SDS011;3967;48.702;9.326;2023-03-19T05:25:34;5.90;;;4.60;;
7843;SDS011;3967;48.702;9.326;2023-03-19T05:28:02;6.37;;;4.63;;
7843;SDS011;3967;48.702;9.326;2023-03-19T05:30:29;5.87;;;4.60;;
7843;SDS011;3967;48.702;9.326;2023-03-19T05:32:57;7.60;;;4.97;;
7843;SDS011;3967;48.702;9.326;2023-03-19T05:35:25;5.90;;;4.73;;
7843;SDS011;3967;48.702;9.326;2023-03-19T05:37:52;5.90;;;5.30;;
7843;SDS011;3967;48.702;9.326;2023-03-19T05:40:19;5.23;;;4.30;;
7843;SDS011;3967;48.702;9.326;2023-03-19T05:42:47;5.73;;;4.80;;
7843;SDS011;3967;48.702;9.326;2023-03-19T05:45:14;5.27;;;4.77;;
7843;SDS011;3967;48.702;9.326;2023-03-19T05:47:42;5.73;;;5.00;;
7843;SDS011;3967;48.702;9.326;2023-03-19T05:50:11;6.53;;;5.37;;
7843;SDS011;3967;48.702;9.326;2023-03-19T05:52:38;7.17;;;5.57;;
7843;SDS011;3967;48.702;9.326;2023-03-19T05:55:05;9.63;;;5.47;;
7843;SDS011;3967;48.702;9.326;2023-03-19T05:57:32;7.83;;;5.47;;
7843;SDS011;3967;48.702;9.326;2023-03-19T05:59:58;6.73;;;4.97;;
7843;SDS011;3967;48.702;9.326;2023-03-19T06:02:25;5.63;;;4.80;;
7843;SDS011;3967;48.702;9.326;2023-03-19T06:04:52;5.50;;;4.77;;
7843;SDS011;3967;48.702;9.326;2023-03-19T06:07:19;4.77;;;4.37;;
7843;SDS011;3967;48.702;9.326;2023-03-19T06:09:45;4.97;;;4.33;;
7843;SDS011;3967;48.702;9.326;2023-03-19T06:12:12;9.73;;;4.80;;
7843;SDS011;3967;48.702;9.326;2023-03-19T06:14:39;4.60;;;4.13;;
7843;SDS011;3967;48.702;9.326;2023-03-19T06:17:05;6.20;;;3.97;;
7843;SDS011;3967;48.702;9.326;2023-03-19T06:19:32;4.70;;;4.23;;
7843;SDS011;3967;48.702;9.326;2023-03-19T06:21:59;6.43;;;4.40;;
7843;SDS011;3967;48.702;9.326;2023-03-19T06:24:26;6.23;;;4.47;;
7843;SDS011;3967;48.702;9.326;2023-03-19T06:26:55;6.53;;;5.67;;
7843;SDS011;3967;48.702;9.326;2023-03-19T06:29:22;6.03;;;5.27;;
7843;SDS011;3967;48.702;9.326;2023-03-19T06:31:48;8.20;;;5.73;;
7843;SDS011;3967;48.702;9.326;2023-03-19T06:34:15;7.83;;;5.57;;
7843;SDS011;3967;48.702;9.326;2023-03-19T06:36:42;6.17;;;5.57;;
7843;SDS011;3967;48.702;9.326;2023-03-19T06:39:09;8.57;;;6.03;;
7843;SDS011;3967;48.702;9.326;2023-03-19T06:41:36;8.50;;;5.17;;
7843;SDS011;3967;48.702;9.326;2023-03-19T06:44:03;7.80;;;6.27;;
7843;SDS011;3967;48.702;9.326;2023-03-19T06:46:30;5.83;;;5.27;;
7843;SDS011;3967;48.702;9.326;2023-03-19T06:48:57;5.80;;;4.73;;
7843;SDS011;3967;48.702;9.326;2023-03-19T06:51:24;4.80;;;4.40;;
7843;SDS011;3967;48.702;9.326;2023-03-19T06:53:53;7.07;;;5.07;;
7843;SDS011;3967;48.702;9.326;2023-03-19T06:56:20;7.23;;;5.73;;
7843;SDS011;3967;48.702;9.326;2023-03-19T06:58:46;7.87;;;5.40;;
7843;SDS011;3967;48.702;9.326;2023-03-19T07:01:13;5.50;;;4.90;;
7843;SDS011;3967;48.702;9.326;2023-03-19T07:03:40;6.27;;;5.57;;
7843;SDS011;3967;48.702;9.326;2023-03-19T07:06:09;6.20;;;5.33;;
7843;SDS011;3967;48.702;9.326;2023-03-19T07:08:36;8.63;;;5.87;;
7843;SDS011;3967;48.702;9.326;2023-03-19T07:11:04;6.20;;;5.60;;
7843;SDS011;3967;48.702;9.326;2023-03-19T07:13:32;9.20;;;6.70;;
7843;SDS011;3967;48.702;9.326;2023-03-19T07:15:59;6.93;;;5.57;;
7843;SDS011;3967;48.702;9.326;2023-03-19T07:18:25;6.10;;;5.60;;
7843;SDS011;3967;48.702;9.326;2023-03-19T07:20:52;7.17;;;6.07;;
7843;SDS011;3967;48.702;9.326;2023-03-19T07:23:19;8.03;;;6.20;;
7843;SDS011;3967;48.702;9.326;2023-03-19T07:25:46;6.10;;;5.50;;
7843;SDS011;3967;48.702;9.326;2023-03-19T07:28:13;8.87;;;6.10;;
7843;SDS011;3967;48.702;9.326;2023-03-19T07:30:40;7.30;;;6.33;;
7843;SDS011;3967;48.702;9.326;2023-03-19T07:33:07;7.33;;;6.60;;
7843;SDS011;3967;48.702;9.326;2023-03-19T07:35:34;11.33;;;6.60;;
7843;SDS011;3967;48.702;9.326;2023-03-19T07:38:01;10.13;;;7.13;;
7843;SDS011;3967;48.702;9.326;2023-03-19T07:40:28;10.13;;;7.40;;
7843;SDS011;3967;48.702;9.326;2023-03-19T07:42:55;8.60;;;6.73;;
7843;SDS011;3967;48.702;9.326;2023-03-19T07:45:22;7.13;;;5.50;;
7843;SDS011;3967;48.702;9.326;2023-03-19T07:47:49;8.33;;;6.40;;
7843;SDS011;3967;48.702;9.326;2023-03-19T07:50:16;8.23;;;6.13;;
7843;SDS011;3967;48.702;9.326;2023-03-19T07:52:47;6.60;;;5.50;;
7843;SDS011;3967;48.702;9.326;2023-03-19T07:55:16;8.67;;;6.30;;
7843;SDS011;3967;48.702;9.326;2023-03-19T07:57:43;6.83;;;6.10;;
7843;SDS011;3967;48.702;9.326;2023-03-19T08:00:09;8.97;;;6.27;;
7843;SDS011;3967;48.702;9.326;2023-03-19T08:02:38;9.93;;;6.37;;
7843;SDS011;3967;48.702;9.326;2023-03-19T08:05:05;9.43;;;6.23;;
7843;SDS011;3967;48.702;9.326;2023-03-19T08:07:31;6.07;;;5.40;;
7843;SDS011;3967;48.702;9.326;2023-03-19T08:09:58;7.30;;;6.40;;
7843;SDS011;3967;48.702;9.326;2023-03-19T08:12:25;8.20;;;5.97;;
7843;SDS011;3967;48.702;9.326;2023-03-19T08:14:52;7.33;;;5.53;;
7843;SDS011;3967;48.702;9.326;2023-03-19T08:17:18;8.23;;;6.17;;
7843;SDS011;3967;48.702;9.326;2023-03-19T08:19:46;9.53;;;7.17;;
7843;SDS011;3967;48.702;9.326;2023-03-19T08:22:12;9.03;;;6.43;;
7843;SDS011;3967;48.702;9.326;2023-03-19T08:24:39;7.53;;;6.33;;
7843;SDS011;3967;48.702;9.326;2023-03-19T08:27:06;6.37;;;5.63;;
7843;SDS011;3967;48.702;9.326;2023-03-19T08:29:33;6.90;;;5.23;;
7843;SDS011;3967;48.702;9.326;2023-03-19T08:32:00;6.33;;;5.10;;
7843;SDS011;3967;48.702;9.326;2023-03-19T08:34:26;5.90;;;5.40;;
7843;SDS011;3967;48.702;9.326;2023-03-19T08:36:54;5.97;;;5.37;;
7843;SDS011;3967;48.702;9.326;2023-03-19T08:39:20;6.30;;;5.30;;
7843;SDS011;3967;48.702;9.326;2023-03-19T08:41:47;7.43;;;5.17;;
7843;SDS011;3967;48.702;9.326;2023-03-19T08:44:14;6.60;;;5.60;;
7843;SDS011;3967;48.702;9.326;2023-03-19T08:46:41;7.40;;;4.60;;
7843;SDS011;3967;48.702;9.326;2023-03-19T08:49:07;5.47;;;4.40;;
7843;SDS011;3967;48.702;9.326;2023-03-19T08:51:34;4.43;;;4.00;;
7843;SDS011;3967;48.702;9.326;2023-03-19T08:54:01;10.07;;;4.10;;
7843;SDS011;3967;48.702;9.326;2023-03-19T08:56:28;4.43;;;3.53;;
7843;SDS011;3967;48.702;9.326;2023-03-19T08:58:55;4.23;;;3.10;;
7843;SDS011;3967;48.702;9.326;2023-03-19T09:01:22;5.10;;;3.70;;
7843;SDS011;3967;48.702;9.326;2023-03-19T09:03:49;3.87;;;3.10;;
7843;SDS011;3967;48.702;9.326;2023-03-19T09:06:16;4.40;;;4.00;;
7843;SDS011;3967;48.702;9.326;2023-03-19T09:08:43;4.33;;;3.77;;
7843;SDS011;3967;48.702;9.326;2023-03-19T09:11:10;5.67;;;4.03;;
7843;SDS011;3967;48.702;9.326;2023-03-19T09:13:37;6.87;;;4.10;;
7843;SDS011;3967;48.702;9.326;2023-03-19T09:16:04;4.73;;;4.23;;
7843;SDS011;3967;48.702;9.326;2023-03-19T09:18:32;5.03;;;3.90;;
7843;SDS011;3967;48.702;9.326;2023-03-19T09:20:59;5.13;;;3.60;;
7843;SDS011;3967;48.702;9.326;2023-03-19T09:23:26;3.87;;;3.53;;
7843;SDS011;3967;48.702;9.326;2023-03-19T09:25:53;4.77;;;3.40;;
7843;SDS011;3967;48.702;9.326;2023-03-19T09:28:20;3.63;;;3.30;;
7843;SDS011;3967;48.702;9.326;2023-03-19T09:30:47;3.33;;;3.03;;
7843;SDS011;3967;48.702;9.326;2023-03-19T09:33:15;6.90;;;3.43;;
7843;SDS011;3967;48.702;9.326;2023-03-19T09:35:47;5.00;;;3.40;;
7843;SDS011;3967;48.702;9.326;2023-03-19T09:38:16;3.57;;;3.23;;
7843;SDS011;3967;48.702;9.326;2023-03-19T09:40:45;5.40;;;3.10;;
7843;SDS011;3967;48.702;9.326;2023-03-19T09:43:26;4.13;;;3.23;;
7843;SDS011;3967;48.702;9.326;2023-03-19T09:45:56;4.63;;;3.27;;
7843;SDS011;3967;48.702;9.326;2023-03-19T09:48:30;3.47;;;3.10;;
7843;SDS011;3967;48.702;9.326;2023-03-19T09:51:01;4.60;;;2.87;;
7843;SDS011;3967;48.702;9.326;2023-03-19T09:56:23;4.10;;;2.73;;
7843;SDS011;3967;48.702;9.326;2023-03-19T09:58:50;2.93;;;2.37;;
7843;SDS011;3967;48.702;9.326;2023-03-19T10:01:21;3.43;;;2.47;;
7843;SDS011;3967;48.702;9.326;2023-03-19T10:06:38;2.50;;;1.90;;
7843;SDS011;3967;48.702;9.326;2023-03-19T10:12:38;2.33;;;2.03;;
7843;SDS011;3967;48.702;9.326;2023-03-19T10:15:20;5.07;;;1.83;;
7843;SDS011;3967;48.702;9.326;2023-03-19T10:18:00;2.37;;;1.27;;
7843;SDS011;3967;48.702;9.326;2023-03-19T10:20:50;4.57;;;1.97;;
7843;SDS011;3967;48.702;9.326;2023-03-19T10:23:31;2.10;;;1.50;;
7843;SDS011;3967;48.702;9.326;2023-03-19T10:26:08;2.10;;;1.73;;
7843;SDS011;3967;48.702;9.326;2023-03-19T10:28:44;3.70;;;1.70;;
7843;SDS011;3967;48.702;9.326;2023-03-19T10:31:29;1.90;;;1.60;;
7843;SDS011;3967;48.702;9.326;2023-03-19T10:34:34;1.50;;;1.40;;
7843;SDS011;3967;48.702;9.326;2023-03-19T10:39:43;5.37;;;1.53;;
7843;SDS011;3967;48.702;9.326;2023-03-19T10:47:55;2.83;;;1.00;;
7843;SDS011;3967;48.702;9.326;2023-03-19T10:50:44;3.13;;;1.33;;
7843;SDS011;3967;48.702;9.326;2023-03-19T10:53:28;2.40;;;1.20;;
7843;SDS011;3967;48.702;9.326;2023-03-19T10:56:09;2.37;;;1.57;;
7843;SDS011;3967;48.702;9.326;2023-03-19T11:01:32;3.80;;;1.10;;
7843;SDS011;3967;48.702;9.326;2023-03-19T11:04:02;1.50;;;1.30;;
7843;SDS011;3967;48.702;9.326;2023-03-19T11:06:40;4.20;;;1.13;;
7843;SDS011;3967;48.702;9.326;2023-03-19T11:11:34;1.17;;;1.10;;
7843;SDS011;3967;48.702;9.326;2023-03-19T11:17:01;3.37;;;1.40;;
7843;SDS011;3967;48.702;9.326;2023-03-19T11:19:32;1.17;;;1.00;;
7843;SDS011;3967;48.702;9.326;2023-03-19T11:24:59;3.97;;;1.50;;
7843;SDS011;3967;48.702;9.326;2023-03-19T11:27:39;2.00;;;1.10;;
7843;SDS011;3967;48.702;9.326;2023-03-19T11:30:16;1.60;;;1.47;;
7843;SDS011;3967;48.702;9.326;2023-03-19T11:35:28;1.43;;;1.30;;
7843;SDS011;3967;48.702;9.326;2023-03-19T11:38:05;1.97;;;0.90;;
7843;SDS011;3967;48.702;9.326;2023-03-19T11:43:43;1.67;;;1.33;;
7843;SDS011;3967;48.702;9.326;2023-03-19T11:57:11;1.83;;;1.03;;
7843;SDS011;3967;48.702;9.326;2023-03-19T12:05:29;1.20;;;1.10;;
7843;SDS011;3967;48.702;9.326;2023-03-19T12:16:57;1.70;;;1.30;;
7843;SDS011;3967;48.702;9.326;2023-03-19T12:25:51;4.80;;;1.37;;
7843;SDS011;3967;48.702;9.326;2023-03-19T12:28:35;1.30;;;1.03;;
7843;SDS011;3967;48.702;9.326;2023-03-19T12:33:51;1.30;;;1.10;;
7843;SDS011;3967;48.702;9.326;2023-03-19T12:36:32;3.07;;;1.17;;
7843;SDS011;3967;48.702;9.326;2023-03-19T12:39:16;2.60;;;1.20;;
7843;SDS011;3967;48.702;9.326;2023-03-19T12:41:47;3.43;;;1.53;;
7843;SDS011;3967;48.702;9.326;2023-03-19T12:46:58;1.50;;;1.10;;
7843;SDS011;3967;48.702;9.326;2023-03-19T12:49:50;3.00;;;0.90;;
7843;SDS011;3967;48.702;9.326;2023-03-19T13:08:42;1.30;;;1.20;;
7843;SDS011;3967;48.702;9.326;2023-03-19T13:14:01;1.77;;;0.90;;
7843;SDS011;3967;48.702;9.326;2023-03-19T13:22:16;2.63;;;1.27;;
7843;SDS011;3967;48.702;9.326;2023-03-19T13:24:58;1.80;;;1.30;;
7843;SDS011;3967;48.702;9.326;2023-03-19T13:27:31;2.00;;;1.30;;
7843;SDS011;3967;48.702;9.326;2023-03-19T13:35:12;2.97;;;1.30;;
7843;SDS011;3967;48.702;9.326;2023-03-19T13:37:49;3.00;;;1.20;;
7843;SDS011;3967;48.702;9.326;2023-03-19T13:40:38;2.07;;;1.10;;
7843;SDS011;3967;48.702;9.326;2023-03-19T13:46:04;2.27;;;1.10;;
7843;SDS011;3967;48.702;9.326;2023-03-19T13:49:23;3.13;;;1.20;;
7843;SDS011;3967;48.702;9.326;2023-03-19T13:51:53;2.30;;;1.10;;
7843;SDS011;3967;48.702;9.326;2023-03-19T13:54:30;3.07;;;1.30;;
7843;SDS011;3967;48.702;9.326;2023-03-19T13:59:44;1.20;;;1.10;;
7843;SDS011;3967;48.702;9.326;2023-03-19T14:04:49;3.13;;;1.10;;
7843;SDS011;3967;48.702;9.326;2023-03-19T14:07:20;2.33;;;1.00;;
7843;SDS011;3967;48.702;9.326;2023-03-19T14:10:35;4.17;;;1.10;;
7843;SDS011;3967;48.702;9.326;2023-03-19T14:12:51;1.27;;;1.17;;
7843;SDS011;3967;48.702;9.326;2023-03-19T14:15:46;1.83;;;1.07;;
7843;SDS011;3967;48.702;9.326;2023-03-19T14:18:20;1.97;;;1.53;;
7843;SDS011;3967;48.702;9.326;2023-03-19T14:23:25;2.53;;;1.70;;
7843;SDS011;3967;48.702;9.326;2023-03-19T14:26:16;1.70;;;1.00;;
7843;SDS011;3967;48.702;9.326;2023-03-19T14:36:44;1.80;;;0.90;;
7843;SDS011;3967;48.702;9.326;2023-03-19T14:39:17;1.20;;;0.90;;
7843;SDS011;3967;48.702;9.326;2023-03-19T14:42:03;1.00;;;0.80;;
7843;SDS011;3967;48.702;9.326;2023-03-19T14:44:38;1.33;;;0.50;;
7843;SDS011;3967;48.702;9.326;2023-03-19T14:50:33;1.40;;;0.63;;
7843;SDS011;3967;48.702;9.326;2023-03-19T14:55:40;1.47;;;0.87;;
7843;SDS011;3967;48.702;9.326;2023-03-19T14:58:09;0.83;;;0.60;;
7843;SDS011;3967;48.702;9.326;2023-03-19T15:00:41;2.70;;;0.90;;
7843;SDS011;3967;48.702;9.326;2023-03-19T15:03:13;1.33;;;0.80;;
7843;SDS011;3967;48.702;9.326;2023-03-19T15:05:55;1.10;;;0.80;;
7843;SDS011;3967;48.702;9.326;2023-03-19T15:08:24;1.50;;;0.90;;
7843;SDS011;3967;48.702;9.326;2023-03-19T15:13:45;1.60;;;0.90;;
7843;SDS011;3967;48.702;9.326;2023-03-19T15:19:27;2.20;;;1.00;;
7843;SDS011;3967;48.702;9.326;2023-03-19T15:22:13;1.73;;;1.07;;
7843;SDS011;3967;48.702;9.326;2023-03-19T15:24:44;1.37;;;0.80;;
7843;SDS011;3967;48.702;9.326;2023-03-19T15:27:23;3.17;;;1.27;;
7843;SDS011;3967;48.702;9.326;2023-03-19T15:29:52;1.03;;;0.83;;
7843;SDS011;3967;48.702;9.326;2023-03-19T15:32:31;1.70;;;0.80;;
7843;SDS011;3967;48.702;9.326;2023-03-19T15:35:26;1.30;;;0.80;;
7843;SDS011;3967;48.702;9.326;2023-03-19T15:38:01;2.40;;;1.20;;
7843;SDS011;3967;48.702;9.326;2023-03-19T15:40:32;1.93;;;1.17;;
7843;SDS011;3967;48.702;9.326;2023-03-19T15:43:02;4.47;;;0.97;;
7843;SDS011;3967;48.702;9.326;2023-03-19T15:45:30;3.20;;;1.30;;
7843;SDS011;3967;48.702;9.326;2023-03-19T15:48:02;1.40;;;1.20;;
7843;SDS011;3967;48.702;9.326;2023-03-19T15:50:34;1.80;;;1.40;;
7843;SDS011;3967;48.702;9.326;2023-03-19T15:53:06;1.93;;;1.30;;
7843;SDS011;3967;48.702;9.326;2023-03-19T15:55:37;2.43;;;1.40;;
7843;SDS011;3967;48.702;9.326;2023-03-19T15:58:05;2.70;;;1.23;;
7843;SDS011;3967;48.702;9.326;2023-03-19T16:00:38;3.93;;;1.90;;
7843;SDS011;3967;48.702;9.326;2023-03-19T16:03:06;2.73;;;1.40;;
7843;SDS011;3967;48.702;9.326;2023-03-19T16:05:49;2.30;;;1.30;;
7843;SDS011;3967;48.702;9.326;2023-03-19T16:08:21;2.00;;;1.60;;
7843;SDS011;3967;48.702;9.326;2023-03-19T16:10:50;1.20;;;1.10;;
7843;SDS011;3967;48.702;9.326;2023-03-19T16:13:24;2.97;;;1.37;;
7843;SDS011;3967;48.702;9.326;2023-03-19T16:16:00;2.03;;;1.53;;
7843;SDS011;3967;48.702;9.326;2023-03-19T16:18:39;2.33;;;1.47;;
7843;SDS011;3967;48.702;9.326;2023-03-19T16:21:28;4.40;;;1.40;;
7843;SDS011;3967;48.702;9.326;2023-03-19T16:26:49;1.80;;;1.37;;
7843;SDS011;3967;48.702;9.326;2023-03-19T16:29:26;1.63;;;1.30;;
7843;SDS011;3967;48.702;9.326;2023-03-19T16:36:57;2.17;;;1.50;;
7843;SDS011;3967;48.702;9.326;2023-03-19T16:39:25;3.10;;;1.30;;
7843;SDS011;3967;48.702;9.326;2023-03-19T16:42:12;3.40;;;1.50;;
7843;SDS011;3967;48.702;9.326;2023-03-19T16:45:01;1.17;;;1.13;;
7843;SDS011;3967;48.702;9.326;2023-03-19T16:47:40;3.53;;;1.60;;
7843;SDS011;3967;48.702;9.326;2023-03-19T16:50:11;2.30;;;1.67;;
7843;SDS011;3967;48.702;9.326;2023-03-19T16:52:40;3.20;;;1.40;;
7843;SDS011;3967;48.702;9.326;2023-03-19T16:55:14;1.57;;;1.37;;
7843;SDS011;3967;48.702;9.326;2023-03-19T16:57:53;1.70;;;1.10;;
7843;SDS011;3967;48.702;9.326;2023-03-19T17:00:26;1.33;;;1.10;;
7843;SDS011;3967;48.702;9.326;2023-03-19T17:02:57;1.30;;;0.83;;
7843;SDS011;3967;48.702;9.326;2023-03-19T17:05:25;1.50;;;1.17;;
7843;SDS011;3967;48.702;9.326;2023-03-19T17:07:53;3.50;;;1.30;;
7843;SDS011;3967;48.702;9.326;2023-03-19T17:10:24;1.40;;;1.20;;
7843;SDS011;3967;48.702;9.326;2023-03-19T17:12:53;1.50;;;1.40;;
7843;SDS011;3967;48.702;9.326;2023-03-19T17:17:56;2.00;;;1.40;;
7843;SDS011;3967;48.702;9.326;2023-03-19T17:20:26;3.03;;;1.10;;
7843;SDS011;3967;48.702;9.326;2023-03-19T17:23:00;2.80;;;1.20;;
7843;SDS011;3967;48.702;9.326;2023-03-19T17:25:27;2.17;;;1.40;;
7843;SDS011;3967;48.702;9.326;2023-03-19T17:27:54;2.87;;;1.90;;
7843;SDS011;3967;48.702;9.326;2023-03-19T17:30:20;2.90;;;2.30;;
7843;SDS011;3967;48.702;9.326;2023-03-19T17:32:47;1.97;;;1.40;;
7843;SDS011;3967;48.702;9.326;2023-03-19T17:35:17;1.63;;;1.20;;
7843;SDS011;3967;48.702;9.326;2023-03-19T17:37:45;2.07;;;1.03;;
7843;SDS011;3967;48.702;9.326;2023-03-19T17:42:43;1.57;;;1.00;;
7843;SDS011;3967;48.702;9.326;2023-03-19T17:45:14;1.60;;;1.50;;
7843;SDS011;3967;48.702;9.326;2023-03-19T17:47:43;2.17;;;1.20;;
7843;SDS011;3967;48.702;9.326;2023-03-19T17:50:15;1.13;;;0.90;;
7843;SDS011;3967;48.702;9.326;2023-03-19T17:52:44;2.33;;;1.30;;
7843;SDS011;3967;48.702;9.326;2023-03-19T17:55:16;1.00;;;1.00;;
7843;SDS011;3967;48.702;9.326;2023-03-19T17:57:50;1.83;;;1.17;;
7843;SDS011;3967;48.702;9.326;2023-03-19T18:00:18;1.20;;;1.10;;